Terminal Aerodrome Forecast
Issued by NWS Twin Cities, MN

Home | Current Version | Previous Version | Text Only | Print | Product List | Glossary Off
Versions: 1 2 3 4 5 6 7 8 9 10 11 12 13 14 15 16 17 18 19 20 21 22 23 24 25 26 27 28 29 30 31 32 33

000
FTUS43 KMPX 281247 AAA
TAFMSP
TAF AMD
KMSP 281247Z 2813/2918 13005KT 3/4SM BR VV002
      TEMPO 2813/2815 2SM BR BKN005
     FM281500 14007KT 4SM BR VCSH SCT008 OVC015
      TEMPO 2815/2817 2SM TSRA BR OVC008CB
     FM281700 15009KT P6SM VCSH SCT015 BKN035 OVC250
     FM281900 15010KT P6SM SCT040 SCT250
     FM290900 14006KT P6SM SCT025 BKN250
      TEMPO 2909/2913 4SM BR=

USA.gov is the U.S. government's official web portal to all federal, state and local government web resources and services.